Latest Weather Observations for Coolangatta

IDN60801

Issued at 1:34 pm EDT Sunday 21 December 2014 (issued every 30 minutes, with the page automatically refreshed every 10 minutes)

About weather observations | Map of weather stations | Latest weather observations for NSW | Other Formats
Station Details ID: 040717 Name: COOLANGATTA Lat: -28.17 Lon: 153.51 Height: 4.0 m
Data from the previous 72 hours. | See also: Recent months at Coolangatta
Date/Time
EDT
Temp
°C
App
Temp
°C
Dew
Point
Rel
Hum
%
Delta-T
°C
Wind Press
QNH
hPa
Press
MSL
hPa
Rain
since 9 am
mm
Dir
 
Spd
km/h
Gust
km/h
Spd
kts
Gust
kts
21/01:30pm 26.2 25.8 18.8 63 4.7 ENE 19 24 10 13 1017.8 1017.7 0.0
21/01:00pm 26.9 27.5 17.7 57 5.8 E 11 20 6 11 1018.1 1018.0 0.0
21/12:30pm 25.4 25.4 17.3 61 5.0 ENE 13 22 7 12 1018.6 1018.5 0.0
21/12:00pm 25.3 25.5 17.7 62 4.8 NE 13 19 7 10 1018.9 1018.8 0.0
21/11:30am 25.0 24.9 17.0 61 5.0 NE 13 17 7 9 1019.1 1019.0 0.0
21/11:00am 24.7 24.3 17.2 63 4.6 NE 15 20 8 11 1019.1 1019.0 0.0
21/10:30am 25.4 25.2 17.6 62 4.9 NE 15 20 8 11 1019.0 1018.9 0.0
21/10:00am 25.6 25.4 17.5 61 5.1 ENE 15 20 8 11 1018.8 1018.7 0.0
21/09:30am 25.6 25.0 17.5 61 5.1 ENE 17 24 9 13 1018.7 1018.6 0.0
21/09:00am 25.1 23.6 17.6 63 4.7 ENE 22 26 12 14 1018.6 1018.5 0.0
21/08:30am 24.8 24.5 17.3 63 4.7 NE 15 20 8 11 1018.5 1018.4 0.0
21/08:00am 23.5 24.5 17.7 70 3.6 E 9 13 5 7 1018.3 1018.2 0.0
21/07:30am 22.9 22.9 18.0 74 3.1 E 15 19 8 10 1018.2 1018.1 0.0
21/07:00am 22.9 23.6 17.1 70 3.6 E 9 15 5 8 1017.8 1017.7 0.0
21/06:30am 22.5 22.8 17.8 75 2.9 ESE 13 20 7 11 1017.4 1017.3 0.0
21/06:00am 23.4 23.3 16.9 67 4.0 ENE 13 17 7 9 1017.0 1016.9 0.0
21/05:30am 23.5 23.4 17.0 67 4.0 ENE 13 17 7 9 1016.8 1016.7 0.0
21/05:00am 23.5 23.3 16.8 66 4.1 ENE 13 17 7 9 1016.5 1016.4 0.0
21/04:30am 23.5 23.3 16.8 66 4.1 ENE 13 19 7 10 1016.4 1016.3 0.0
21/04:00am 23.5 22.8 16.3 64 4.4 ENE 15 20 8 11 1016.5 1016.4 0.0
21/03:30am 23.5 23.3 16.8 66 4.1 E 13 17 7 9 1016.4 1016.3 0.0
21/03:00am 23.4 23.1 16.4 64 4.3 E 13 19 7 10 1016.6 1016.5 0.0
21/02:30am 23.5 23.2 16.5 65 4.3 E 13 19 7 10 1016.8 1016.7 0.0
21/02:00am 23.4 22.6 16.2 64 4.4 E 15 20 8 11 1017.1 1017.0 0.0
21/01:30am 23.5 23.1 16.3 64 4.4 ESE 13 20 7 11 1017.4 1017.3 0.0
21/01:00am 23.6 23.4 16.6 65 4.3 ESE 13 20 7 11 1017.5 1017.4 0.0
21/12:30am 23.7 23.2 17.0 66 4.1 E 15 20 8 11 1017.6 1017.5 0.0
21/12:00am 23.7 23.2 17.0 66 4.1 E 15 24 8 13 1017.9 1017.8 0.0
 
Date/Time
EDT
Temp
°C
App
Temp
°C
Dew
Point
Rel
Hum
%
Delta-T
°C
Wind Press
QNH
hPa
Press
MSL
hPa
Rain
since 9 am
mm
Dir
 
Spd
km/h
Gust
km/h
Spd
kts
Gust
kts
20/11:30pm 23.6 22.7 16.9 66 4.1 E 17 22 9 12 1018.1 1018.0 0.0
20/11:00pm 23.7 23.2 17.0 66 4.1 E 15 22 8 12 1018.1 1018.0 0.0
20/10:30pm 23.7 23.2 17.0 66 4.1 ESE 15 19 8 10 1018.2 1018.1 0.0
20/10:00pm 23.8 23.8 17.1 66 4.1 E 13 20 7 11 1017.9 1017.8 0.0
20/09:30pm 23.7 23.6 17.0 66 4.1 ESE 13 19 7 10 1017.5 1017.4 0.0
20/09:00pm 23.7 22.7 16.7 65 4.3 ESE 17 20 9 11 1016.9 1016.8 0.0
20/08:30pm 24.0 23.0 16.5 63 4.6 E 17 24 9 13 1016.8 1016.7 0.0
20/08:00pm 24.1 23.5 16.6 63 4.6 ESE 15 20 8 11 1016.4 1016.3 0.0
20/07:30pm 24.2 23.0 16.2 61 4.9 E 17 22 9 12 1016.1 1016.0 0.0
20/07:00pm 24.4 22.9 16.4 61 4.9 E 19 24 10 13 1015.6 1015.5 0.0
20/06:30pm 24.7 23.1 16.4 60 5.1 ESE 20 26 11 14 1015.2 1015.1 0.0
20/06:00pm 24.8 23.3 16.8 61 4.9 ESE 20 26 11 14 1014.8 1014.7 0.0
20/05:30pm 25.5 24.3 17.4 61 5.1 E 20 32 11 17 1014.5 1014.4 0.0
20/05:00pm 25.0 23.5 16.4 59 5.3 E 19 28 10 15 1014.4 1014.3 0.0
20/04:30pm 26.4 25.8 17.5 58 5.6 ESE 17 22 9 12 1014.6 1014.5 0.0
20/04:00pm 25.3 23.7 16.4 57 5.5 E 20 24 11 13 1014.9 1014.8 0.0
20/03:30pm 26.7 25.0 17.2 56 5.9 E 22 33 12 18 1015.0 1014.9 0.0
20/03:00pm 26.8 25.3 16.4 53 6.4 ESE 19 28 10 15 1015.4 1015.3 0.0
20/02:30pm 26.7 24.5 16.9 55 6.1 E 24 32 13 17 1015.5 1015.4 0.0
20/02:00pm 27.3 25.1 16.9 53 6.5 E 24 32 13 17 1015.8 1015.7 0.0
20/01:30pm 25.9 24.3 16.5 56 5.8 ESE 20 26 11 14 1016.1 1016.0 0.0
20/01:00pm 26.6 25.1 16.8 55 6.1 E 20 28 11 15 1016.2 1016.1 0.0
20/12:30pm 27.5 25.6 15.8 48 7.2 ESE 20 32 11 17 1016.5 1016.4 0.0
20/12:00pm 27.2 25.2 16.5 52 6.6 SE 22 32 12 17 1016.8 1016.7 0.0
20/11:30am 27.3 25.5 16.9 53 6.5 ESE 22 33 12 18 1016.8 1016.7 0.0
20/11:00am 26.2 24.8 17.0 57 5.7 ESE 20 28 11 15 1016.9 1016.8 0.0
20/10:30am 26.3 24.1 16.8 56 5.9 ESE 24 33 13 18 1016.9 1016.8 0.0
20/10:00am 26.9 25.7 17.4 56 6.0 SE 20 28 11 15 1016.8 1016.7 0.0
20/09:30am 26.4 25.2 17.5 58 5.6 SE 20 28 11 15 1016.7 1016.6 0.0
20/09:00am 26.1 24.7 16.9 57 5.7 ESE 20 30 11 16 1016.4 1016.3 0.0
20/08:30am 26.2 25.0 17.6 59 5.4 SE 20 28 11 15 1016.3 1016.2 0.0
20/08:00am 24.9 25.9 18.6 68 4.0 S 11 17 6 9 1016.1 1016.0 0.0
20/07:30am 23.9 24.6 17.9 69 3.8 S 11 17 6 9 1015.8 1015.7 0.0
20/07:00am 23.1 23.7 17.6 71 3.4 S 11 17 6 9 1015.3 1015.2 0.0
20/06:30am 22.1 22.6 17.5 75 2.8 S 11 15 6 8 1015.1 1015.0 0.0
20/06:00am 21.5 22.3 17.3 77 2.6 SSW 9 13 5 7 1014.9 1014.8 0.0
20/05:30am 21.5 21.9 17.3 77 2.6 S 11 17 6 9 1014.5 1014.4 0.0
20/05:00am 21.6 22.4 17.4 77 2.6 S 9 15 5 8 1014.2 1014.1 0.0
20/04:30am 21.8 22.2 17.2 75 2.8 S 11 17 6 9 1014.1 1014.0 0.0
20/04:00am 22.1 22.2 17.5 75 2.8 S 13 17 7 9 1013.9 1013.8 0.0
20/03:30am 22.0 22.1 17.4 75 2.8 SSW 13 19 7 10 1013.8 1013.7 0.0
20/03:00am 22.2 21.9 17.3 74 3.0 S 15 20 8 11 1013.8 1013.7 0.0
20/02:30am 22.4 21.7 17.3 73 3.1 SSW 17 22 9 12 1013.9 1013.8 0.0
20/02:00am 22.4 22.2 17.5 74 3.0 S 15 19 8 10 1014.0 1013.9 0.0
20/01:30am 22.6 22.1 17.7 74 3.0 S 17 24 9 13 1014.2 1014.1 0.0
20/01:00am 22.8 22.3 17.7 73 3.2 S 17 26 9 14 1014.6 1014.5 0.0
20/12:30am 22.8 22.3 17.9 74 3.1 SSW 17 26 9 14 1014.8 1014.7 0.0
20/12:00am 22.9 22.1 18.0 74 3.1 S 19 26 10 14 1014.8 1014.7 0.0
 
Date/Time
EDT
Temp
°C
App
Temp
°C
Dew
Point
Rel
Hum
%
Delta-T
°C
Wind Press
QNH
hPa
Press
MSL
hPa
Rain
since 9 am
mm
Dir
 
Spd
km/h
Gust
km/h
Spd
kts
Gust
kts
19/11:30pm 23.1 22.5 18.4 75 3.0 S 19 24 10 13 1014.8 1014.7 0.0
19/11:00pm 23.3 22.9 18.8 76 2.8 S 19 26 10 14 1014.8 1014.7 0.0
19/10:30pm 23.5 23.0 19.0 76 2.9 S 20 30 11 16 1014.5 1014.4 0.0
19/10:00pm 23.7 23.3 19.4 77 2.7 S 20 32 11 17 1014.3 1014.2 0.0
19/09:30pm 24.2 24.0 19.7 76 2.9 S 20 26 11 14 1013.8 1013.7 0.0
19/09:00pm 24.4 24.3 19.5 74 3.1 S 19 26 10 14 1013.4 1013.3 0.0
19/08:30pm 24.6 24.6 19.7 74 3.2 SSE 19 26 10 14 1013.0 1012.9 0.0
19/08:00pm 25.3 25.2 19.9 72 3.5 SSE 20 32 11 17 1012.6 1012.5 0.0
19/07:30pm 26.2 26.3 18.3 61 5.0 SE 15 20 8 11 1012.0 1011.9 0.0
19/07:00pm 27.3 26.2 16.3 51 6.8 SE 17 28 9 15 1011.4 1011.3 0.0
19/06:30pm 27.6 28.1 17.5 54 6.4 ESE 11 17 6 9 1010.7 1010.6 0.0
19/06:00pm 26.8 28.2 21.1 71 3.8 ENE 15 20 8 11 1010.1 1010.0 0.0
19/05:30pm 27.1 28.0 21.6 72 3.7 ENE 19 24 10 13 1009.4 1009.3 0.0
19/05:00pm 27.5 29.1 22.2 73 3.6 NE 17 24 9 13 1008.6 1008.5 0.0
19/04:30pm 28.1 29.4 22.6 72 3.7 NNE 20 26 11 14 1008.4 1008.3 0.0
19/04:00pm 28.0 29.2 22.5 72 3.7 NNE 20 28 11 15 1008.4 1008.3 0.0
19/03:30pm 28.5 29.3 22.5 70 4.1 NNE 22 30 12 16 1008.6 1008.5 0.0
19/03:00pm 28.9 29.3 22.4 68 4.4 NNE 24 30 13 16 1008.9 1008.8 0.0
19/02:30pm 28.7 28.8 21.2 64 5.0 NNE 22 30 12 16 1009.1 1009.0 0.0
19/02:00pm 29.4 29.1 20.3 58 6.0 NNE 22 26 12 14 1009.4 1009.3 0.0
19/01:30pm 29.1 28.7 19.4 55 6.3 NNE 20 24 11 13 1009.8 1009.7 0.0
19/01:00pm 28.5 27.8 18.3 54 6.5 NNE 19 22 10 12 1010.1 1010.0 0.0
19/12:30pm 28.2 27.5 18.6 56 6.2 NNE 20 24 11 13 1010.3 1010.2 0.0
19/12:00pm 28.4 28.7 20.4 62 5.3 NNE 19 22 10 12 1010.5 1010.4 0.0
19/11:30am 27.3 26.6 19.4 62 5.1 NNE 22 26 12 14 1010.6 1010.5 0.0
19/11:00am 27.0 26.5 19.1 62 5.1 NNE 20 24 11 13 1010.6 1010.5 0.0
19/10:30am 26.5 26.2 19.6 66 4.5 N 20 24 11 13 1010.8 1010.7 0.0
19/10:00am 26.7 27.0 19.6 65 4.6 N 17 24 9 13 1011.0 1010.9 5.6
19/09:30am 25.7 27.2 19.8 70 3.8 NW 11 17 6 9 1011.2 1011.1 5.6
19/09:00am 23.9 25.7 19.6 77 2.8 WNW 9 17 5 9 1011.3 1011.2 5.6
19/08:30am 22.2 24.0 18.8 81 2.1 NW 7 11 4 6 1011.1 1011.0 5.6
19/08:00am 21.0 24.3 19.1 89 1.2 CALM 0 0 0 0 1011.2 1011.1 5.6
19/07:30am 20.7 24.0 19.0 90 1.1 CALM 0 0 0 0 1011.1 1011.0 5.6
19/07:00am 20.5 23.0 19.0 91 0.9 SW 4 7 2 4 1011.1 1011.0 5.6
19/06:30am 20.2 22.3 18.9 92 0.8 WNW 6 13 3 7 1010.8 1010.7 5.6
19/06:00am 20.2 20.8 18.7 91 0.9 WNW 13 19 7 10 1010.8 1010.7 5.6
19/05:30am 19.9 20.8 18.4 91 0.9 NW 11 13 6 7 1010.4 1010.3 5.6
19/05:00am 19.9 20.8 18.4 91 0.9 N 11 15 6 8 1010.4 1010.3 5.6
19/04:30am 19.9 21.6 18.6 92 0.8 WNW 7 9 4 5 1010.6 1010.5 5.4
19/04:00am 19.9 22.9 18.4 91 0.9 CALM 0 0 0 0 1010.8 1010.7 5.4
19/03:30am 19.9 21.3 17.9 88 1.2 WSW 7 11 4 6 1011.5 1011.4 5.0
19/03:00am 20.3 21.1 18.1 87 1.4 W 11 15 6 8 1011.7 1011.6 4.8
19/02:30am 21.3 21.7 19.0 87 1.5 WSW 15 24 8 13 1012.0 1011.9 3.6
19/02:00am 22.4 24.2 21.2 93 0.8 W 13 20 7 11 1012.1 1012.0 3.0
19/01:30am 22.7 25.2 21.7 94 0.7 WSW 11 13 6 7 1012.0 1011.9 1.8
19/01:00am 23.0 25.5 21.8 93 0.8 W 11 15 6 8 1011.8 1011.7 1.2
19/12:30am 23.3 26.3 21.9 92 0.9 N 9 15 5 8 1011.2 1011.1 1.0
19/12:00am 23.1 26.1 21.9 93 0.8 SE 9 11 5 6 1011.5 1011.4 1.0
 
Date/Time
EDT
Temp
°C
App
Temp
°C
Dew
Point
Rel
Hum
%
Delta-T
°C
Wind Press
QNH
hPa
Press
MSL
hPa
Rain
since 9 am
mm
Dir
 
Spd
km/h
Gust
km/h
Spd
kts
Gust
kts
18/11:30pm 22.8 25.2 21.6 93 0.8 W 11 15 6 8 1011.3 1011.2 1.0
18/11:00pm 23.0 26.1 21.4 91 1.1 W 7 13 4 7 1010.8 1010.7 1.0
18/10:30pm 23.9 26.1 21.2 85 1.8 NE 11 15 6 8 1010.6 1010.5 1.0
18/10:00pm 23.6 26.8 21.3 87 1.5 SE 6 11 3 6 1011.0 1010.9 0.8
18/09:30pm 23.6 26.0 21.5 88 1.4 ESE 11 15 6 8 1010.2 1010.1 0.6
18/09:00pm 23.7 26.6 21.0 85 1.8 E 7 11 4 6 1010.2 1010.1 0.6
18/08:30pm 23.2 26.3 20.3 84 1.9 SSW 4 7 2 4 1010.2 1010.1 0.6
18/08:00pm 23.1 23.7 20.2 84 1.9 WNW 17 20 9 11 1010.1 1010.0 0.6
18/07:30pm 25.2 24.3 20.7 76 2.9 W 26 43 14 23 1009.8 1009.7 0.0
18/07:25pm 25.7 27.3 21.4 77 2.8 WNW 15 43 8 23 1009.7 1009.6 0.0
18/07:00pm 26.2 29.0 23.7 86 1.7 WNW 15 19 8 10 1008.4 1008.3 0.0
18/06:30pm 26.2 28.3 23.7 86 1.7 N 19 26 10 14 1006.8 1006.7 0.0
18/06:00pm 26.2 28.1 23.7 86 1.7 N 20 30 11 16 1006.8 1006.7 0.0
18/05:30pm 26.3 28.3 24.0 87 1.6 N 20 26 11 14 1006.2 1006.1 0.0
18/05:00pm 26.7 28.1 23.6 83 2.1 N 22 28 12 15 1006.1 1006.0 0.0
18/04:30pm 27.6 27.7 23.2 77 3.0 N 28 33 15 18 1005.9 1005.8 0.0
18/04:00pm 27.1 28.6 23.1 79 2.7 N 20 32 11 17 1006.4 1006.3 0.0
18/03:30pm 27.3 28.0 22.9 77 3.0 NNE 24 33 13 18 1006.4 1006.3 0.0
18/03:00pm 29.0 30.8 24.3 76 3.3 NNE 22 28 12 15 1006.8 1006.7 0.0

Other Formats:

Comma delimited format used in spreadsheet applications
http://www.bom.gov.au/fwo/IDN60801/IDN60801.94592.axf

JavaScript Object Notation format (JSON) in row-major order
http://www.bom.gov.au/fwo/IDN60801/IDN60801.94592.json